Jones, Louisiana
Current Conditions -  °F | °C
As of 3:15 PM on Friday 28 Nov 2014 (Local Time) from KBQP Reporting Station
Clear Clear  
Wind Chill: 60°   Ceiling: Unl
Heat Index: 60°   Visibility: 10mi
Dew Point: 34°   Wind: 7mph
Humidity: 37%   Direction: 170°S
Pressure: 30.21"   Gusts: NA
Location:  32.97°N, 91.65°W
Report Text: KBQP 282115Z AUTO 17006KT 10SM CLR 16/01 A3021 RMK AO2 T01570010
Loading
Personal Weather Stations






























Interactive Weather Map New forecast layout! Learn more

10-Day Weather Forecast

Advertisements
Track Severe Weather on mobile